Latest Weather Observations for Curtin

IDW60801

Issued at 6:13 pm WST Thursday 21 November 2019 (issued every 10 minutes, with the page automatically refreshed every 10 minutes)

About weather observations | Map of weather stations | Latest weather observations for WA | Other Formats
Station Details ID: 003080 Name: CURTIN AERO Lat: -17.58 Lon: 123.83 Height: 77.5 m
Data from the previous 72 hours. | See also: Recent months at Curtin
Date/Time
WST
Temp
°C
App
Temp
°C
Dew
Point
°C
Rel
Hum
%
Delta-T
°C
Wind Press
QNH
hPa
Press
MSL
hPa
Rain since
9am
mm
Dir  Spd
km/h
Gust
km/h
Spd
kts
Gust
kts
21/06:00pm 33.8 36.3 23.8 56 7.0 NW 17 24 9 13 1005.9 1005.3 0.0
21/05:30pm 35.0 35.8 21.3 45 9.3 NW 19 32 10 17 1005.5 1004.9 0.0
21/05:00pm 35.6 35.9 20.7 41 10.1 NW 20 28 11 15 1005.0 1004.4 0.0
21/04:30pm 38.2 37.5 18.6 31 13.0 NW 20 33 11 18 1004.7 1004.1 0.0
21/04:00pm 39.7 39.0 15.3 23 15.6 WNW 13 26 7 14 1004.4 1003.8 0.0
21/03:30pm 41.8 37.8 6.6 12 20.0 WSW 17 22 9 12 1004.3 1003.7 0.0
21/03:00pm 42.0 39.0 7.9 13 19.8 WSW 13 20 7 11 1004.7 1004.1 0.0
21/02:30pm 40.9 38.3 9.2 15 18.6 S 13 22 7 12 1005.0 1004.4 0.0
21/02:00pm 41.8 40.2 11.7 17 18.4 S 11 22 6 12 1005.3 1004.7 0.0
21/01:30pm 40.0 38.3 11.2 18 17.3 SSE 11 20 6 11 1005.7 1005.1 0.0
21/01:00pm 39.2 39.2 13.6 22 15.9 W 6 15 3 8 1006.2 1005.6 0.0
21/12:30pm 38.6 37.5 13.1 22 15.7 S 11 17 6 9 1006.9 1006.3 0.0
21/12:00pm 38.2 37.5 15.3 25 14.5 SSW 13 19 7 10 1007.4 1006.8 0.0
21/11:30am 36.8 35.7 16.4 30 13.1 SSW 17 20 9 11 1008.0 1007.4 0.0
21/11:00am 37.2 36.6 16.7 29 13.2 SW 15 22 8 12 1008.6 1008.0 0.0
21/10:30am 34.8 36.0 20.0 42 9.9 W 13 19 7 10 1009.0 1008.4 0.0
21/10:00am 33.8 35.9 20.9 46 8.7 SW 11 17 6 9 1009.4 1008.8 0.0
21/09:30am 32.9 34.8 21.4 50 7.8 WNW 13 17 7 9 1009.6 1009.0 0.0
21/09:00am 31.6 33.8 21.2 54 7.0 W 11 17 6 9 1010.0 1009.4 1.8
21/08:30am 30.4 33.0 22.0 60 5.7 WNW 11 15 6 8 1010.0 1009.4 1.8
21/08:00am 29.6 33.3 23.3 69 4.3 NNW 9 15 5 8 1010.0 1009.4 1.8
21/07:30am 28.2 31.5 23.8 77 3.0 WSW 13 17 7 9 1010.0 1009.4 1.8
21/07:00am 27.3 30.9 24.4 84 2.0 SW 13 17 7 9 1009.7 1009.1 1.8
21/06:30am 26.6 29.8 25.0 91 1.1 SSW 17 22 9 12 1009.6 1009.0 1.8
21/06:00am 25.7 30.8 25.0 96 0.5 SW 7 11 4 6 1008.9 1008.3 1.8
21/05:30am 25.1 29.7 24.8 98 0.2 SW 9 11 5 6 1008.2 1007.6 1.8
21/05:03am 24.8 28.7 24.3 97 0.3 SSW 11 13 6 7 1007.7 1007.1 1.8
21/05:00am 24.7 28.6 24.2 97 0.3 SW 11 13 6 7 1007.7 1007.1 1.8
21/04:30am 24.6 28.5 23.6 94 0.7 WSW 9 13 5 7 1007.1 1006.5 1.8
21/04:00am 24.9 28.4 23.5 92 1.0 WSW 11 13 6 7 1006.8 1006.2 1.8
21/03:30am 25.1 27.3 23.2 89 1.3 WSW 17 20 9 11 1006.4 1005.8 1.8
21/03:00am 24.8 26.8 22.3 86 1.7 WSW 15 17 8 9 1006.3 1005.7 1.8
21/02:30am 24.9 27.2 22.0 84 1.9 WSW 13 15 7 8 1006.3 1005.7 1.8
21/02:00am 25.2 27.9 21.3 79 2.6 W 9 13 5 7 1006.4 1005.8 1.8
21/01:30am 25.6 27.5 20.6 74 3.3 W 11 15 6 8 1006.5 1005.9 1.8
21/01:00am 26.0 27.1 19.6 68 4.2 WNW 13 19 7 10 1006.7 1006.1 1.8
21/12:30am 25.9 26.6 17.0 58 5.5 NW 9 15 5 8 1007.1 1006.5 1.8
21/12:00am 26.5 26.9 16.4 53 6.3 WNW 9 13 5 7 1007.4 1006.8 1.8
 
Date/Time
WST
Temp
°C
App
Temp
°C
Dew
Point
°C
Rel
Hum
%
Delta-T
°C
Wind Press
QNH
hPa
Press
MSL
hPa
Rain since
9am
mm
Dir  Spd
km/h
Gust
km/h
Spd
kts
Gust
kts
20/11:30pm 27.6 27.8 17.7 54 6.3 WSW 13 15 7 8 1008.0 1007.4 1.8
20/11:00pm 28.4 27.8 17.6 52 6.9 WSW 17 19 9 10 1008.3 1007.7 1.8
20/10:30pm 27.8 28.4 18.5 57 6.0 SW 13 15 7 8 1008.8 1008.2 1.8
20/10:00pm 28.0 29.4 18.7 57 6.0 SSW 9 13 5 7 1009.1 1008.5 1.8
20/09:30pm 29.2 29.6 16.4 46 8.0 WNW 9 11 5 6 1009.0 1008.4 1.8
20/09:00pm 28.4 30.1 18.5 55 6.4 WSW 7 9 4 5 1009.0 1008.4 1.8
20/08:30pm 29.1 29.1 16.3 46 8.0 NW 11 13 6 7 1008.7 1008.1 1.8
20/08:00pm 29.2 29.5 17.1 48 7.6 WNW 11 15 6 8 1008.4 1007.8 1.6
20/07:30pm 28.7 28.8 19.1 56 6.2 WSW 17 17 9 9 1008.2 1007.6 1.6
20/07:00pm 29.6 30.8 19.0 53 6.9 WSW 11 11 6 6 1007.9 1007.3 1.6
20/06:30pm 29.7 30.7 17.8 48 7.6 S 9 15 5 8 1007.8 1007.2 1.6
20/06:00pm 31.1 31.1 16.3 41 9.3 S 11 20 6 11 1007.3 1006.7 1.6
20/05:30pm 31.6 31.3 14.3 35 10.6 N 9 15 5 8 1006.2 1005.6 1.6
20/05:00pm 33.0 29.3 15.9 35 10.8 SW 30 39 16 21 1005.2 1004.6 1.6
20/04:54pm 29.6 26.2 18.1 50 7.4 SSW 33 43 18 23 1005.6 1005.0 1.6
20/04:30pm 27.1 24.1 18.7 60 5.4 S 32 44 17 24 1007.6 1007.0 0.0
20/04:26pm 27.9 23.9 17.7 53 6.5 S 35 52 19 28 1007.3 1006.7 0.0
20/04:00pm 32.1 26.9 15.6 37 10.3 SSW 37 50 20 27 1006.8 1006.2 0.0
20/03:42pm 34.5 32.5 15.4 32 12.0 WSW 20 48 11 26 1006.0 1005.4 0.0
20/03:30pm 38.2 37.2 16.5 28 14.0 WSW 17 24 9 13 1005.0 1004.4 0.0
20/03:18pm 37.2 33.9 15.1 27 13.9 SSW 26 35 14 19 1004.8 1004.2 0.0
20/03:00pm 32.1 26.1 17.9 42 9.2 SSW 46 65 25 35 1004.9 1004.3 0.0
20/02:50pm 34.7 34.4 19.5 40 10.1 W 20 48 11 26 1005.1 1004.5 0.0
20/02:30pm 38.6 38.2 16.3 27 14.3 NW 13 22 7 12 1005.0 1004.4 0.0
20/02:00pm 39.8 38.0 13.4 21 16.4 SW 15 26 8 14 1005.2 1004.6 0.0
20/01:30pm 40.3 38.4 13.0 20 16.9 W 15 28 8 15 1005.7 1005.1 0.0
20/01:00pm 39.5 38.2 15.8 24 15.2 NW 17 26 9 14 1006.0 1005.4 0.0
20/12:30pm 39.2 39.6 17.3 27 14.3 W 11 20 6 11 1006.5 1005.9 0.0
20/12:00pm 38.1 37.7 18.0 30 13.2 W 17 30 9 16 1007.1 1006.5 0.0
20/11:30am 37.1 37.9 19.1 35 12.0 W 13 22 7 12 1007.7 1007.1 0.0
20/11:00am 36.6 36.6 18.2 34 12.1 WNW 15 26 8 14 1008.3 1007.7 0.0
20/10:30am 36.1 35.0 16.3 31 12.6 WNW 17 28 9 15 1008.7 1008.1 0.0
20/10:00am 35.6 35.6 18.2 35 11.4 WSW 15 24 8 13 1009.1 1008.5 0.0
20/09:30am 33.6 33.6 17.3 37 10.5 W 13 22 7 12 1009.6 1009.0 0.0
20/09:00am 32.3 33.0 18.8 44 8.8 W 13 17 7 9 1009.9 1009.3 -
20/08:30am 30.8 32.2 20.4 54 6.9 W 13 19 7 10 1010.2 1009.6 -
20/08:00am 29.8 31.5 22.3 64 5.1 WSW 17 20 9 11 1010.2 1009.6 -
20/07:30am 28.5 31.1 22.7 71 4.0 W 13 19 7 10 1010.0 1009.4 -
20/07:15am 28.2 30.8 23.3 75 3.4 W 15 24 8 13 1009.9 1009.3 -
20/07:00am 27.6 30.4 23.6 79 2.8 WNW 15 20 8 11 1009.6 1009.0 -
20/06:30am 26.2 29.8 24.4 90 1.2 WNW 13 17 7 9 1009.3 1008.7 -
20/06:00am 24.5 29.3 24.5 100 0.0 WNW 7 9 4 5 1009.0 1008.4 -
20/05:34am 23.6 29.2 23.6 100 0.0 CALM 0 6 0 3 1008.8 1008.2 -
20/05:30am 23.4 28.1 23.4 100 0.0 NW 4 7 2 4 1008.7 1008.1 -
20/05:00am 22.6 26.5 22.6 100 0.0 NNW 6 7 3 4 1008.2 1007.6 -
20/04:55am 23.0 27.1 23.0 100 0.0 NW 6 9 3 5 1008.2 1007.6 -
20/04:47am 23.3 27.4 23.3 100 0.0 NW 7 9 4 5 1008.1 1007.5 -
20/04:40am 23.2 26.9 23.2 100 0.0 WNW 9 9 5 5 1008.0 1007.4 -
20/04:30am 23.0 26.8 22.8 99 0.1 NW 7 9 4 5 1007.9 1007.3 -
20/04:21am 22.6 26.2 22.1 97 0.3 NNW 6 7 3 4 1007.8 1007.2 -
20/04:00am 23.4 27.8 23.4 100 0.0 NW 6 7 3 4 1007.6 1007.0 -
20/03:30am 23.4 27.4 23.1 98 0.2 NW 7 9 4 5 1007.3 1006.7 -
20/03:00am 23.6 27.7 23.3 98 0.2 NNW 7 9 4 5 1007.2 1006.6 0.0
20/02:30am 23.2 26.8 22.4 95 0.5 N 7 9 4 5 1007.2 1006.6 -
20/02:00am 24.3 28.0 23.3 94 0.7 NW 9 13 5 7 1007.1 1006.5 -
20/01:30am 24.5 28.1 23.1 92 0.9 NW 9 13 5 7 1007.0 1006.4 -
20/01:00am 24.8 28.4 23.0 90 1.2 NW 9 11 5 6 1007.2 1006.6 -
20/12:30am 25.2 28.4 23.1 88 1.4 NW 11 13 6 7 1007.3 1006.7 -
20/12:00am 25.8 29.2 23.3 86 1.7 NW 11 15 6 8 1007.6 1007.0 -
 
Date/Time
WST
Temp
°C
App
Temp
°C
Dew
Point
°C
Rel
Hum
%
Delta-T
°C
Wind Press
QNH
hPa
Press
MSL
hPa
Rain since
9am
mm
Dir  Spd
km/h
Gust
km/h
Spd
kts
Gust
kts
19/11:30pm 26.4 29.8 23.3 83 2.1 NW 11 15 6 8 1007.9 1007.3 -
19/11:00pm 26.9 30.2 23.2 80 2.5 NNW 11 15 6 8 1008.4 1007.8 -
19/10:30pm 27.7 30.8 23.5 78 2.9 NW 13 20 7 11 1008.5 1007.9 -
19/10:00pm 28.3 31.0 23.4 75 3.4 NW 15 20 8 11 1008.8 1008.2 -
19/09:30pm 28.9 31.0 23.1 71 4.0 NW 17 24 9 13 1008.9 1008.3 -
19/09:00pm 29.8 31.4 22.8 66 4.8 NW 19 24 10 13 1008.7 1008.1 0.0
19/08:30pm 30.0 32.8 23.7 69 4.4 NW 15 24 8 13 1008.4 1007.8 -
19/08:00pm 30.3 32.2 23.5 67 4.7 NW 19 30 10 16 1008.1 1007.5 -
19/07:30pm 30.5 32.7 23.2 65 5.0 NNW 17 26 9 14 1007.9 1007.3 -
19/07:00pm 30.8 32.8 22.9 62 5.4 NNW 17 26 9 14 1007.6 1007.0 -
19/06:30pm 31.0 32.5 23.1 63 5.4 NNW 20 33 11 18 1007.2 1006.6 -
19/06:00pm 31.7 32.4 23.0 60 6.0 NW 24 37 13 20 1007.1 1006.5 -
19/05:30pm 32.3 32.7 22.4 56 6.8 NNW 24 33 13 18 1006.4 1005.8 -
19/05:00pm 33.4 33.7 21.5 49 8.1 NNW 22 35 12 19 1006.1 1005.5 -
19/04:30pm 35.4 33.1 20.1 40 10.3 NNW 32 44 17 24 1005.6 1005.0 -
19/04:00pm 36.0 34.0 19.9 39 10.8 NNW 30 43 16 23 1005.2 1004.6 -
19/03:30pm 38.0 36.3 19.9 35 12.2 NW 28 39 15 21 1005.0 1004.4 -
19/03:00pm 39.9 38.1 19.6 31 13.7 NW 28 39 15 21 1005.1 1004.5 -
19/02:00pm 40.9 37.9 5.9 12 19.7 NW 11 17 6 9 1005.3 1004.7 -
19/01:30pm 40.4 36.0 6.7 13 19.1 W 19 30 10 16 1005.5 1004.9 -
19/01:00pm 41.6 39.4 6.4 12 20.0 SSW 7 15 4 8 1005.9 1005.3 0.0
19/12:30pm 41.0 36.9 6.0 12 19.6 WSW 17 33 9 18 1006.4 1005.8 0.0
19/12:00pm 40.4 36.7 7.8 14 18.8 NW 17 24 9 13 1007.0 1006.4 0.0
19/11:30am 39.7 35.7 8.2 15 18.2 W 19 28 10 15 1007.7 1007.1 0.0
19/11:00am 38.7 36.3 12.5 21 16.0 NW 17 30 9 16 1008.3 1007.7 0.0
19/10:30am 36.9 36.4 15.9 28 13.4 W 13 20 7 11 1008.9 1008.3 0.0
19/10:00am 36.0 36.2 17.7 34 11.9 WNW 13 19 7 10 1009.5 1008.9 0.0
19/09:30am 34.5 36.0 20.5 44 9.4 W 13 22 7 12 1009.9 1009.3 0.0
19/09:00am 33.4 34.4 20.2 46 8.8 WNW 15 24 8 13 1010.4 1009.8 0.0
19/08:30am 32.5 33.8 21.7 53 7.3 WNW 17 24 9 13 1010.7 1010.1 0.0
19/08:00am 31.7 34.1 23.0 60 6.0 NW 15 28 8 15 1010.7 1010.1 0.0
19/07:30am 30.0 32.3 23.4 67 4.6 NW 17 22 9 12 1010.5 1009.9 0.0
19/07:00am 28.5 31.6 24.1 77 3.1 NNW 15 24 8 13 1010.3 1009.7 0.0
19/06:30am 27.2 31.5 24.3 84 2.0 N 9 13 5 7 1010.1 1009.5 0.0
19/06:00am 26.2 31.4 24.8 92 1.0 N 6 9 3 5 1010.2 1009.6 0.0
19/05:30am 24.9 29.7 24.4 97 0.3 N 7 9 4 5 1009.8 1009.2 0.0
19/05:00am 24.7 29.1 24.4 98 0.2 N 9 13 5 7 1009.3 1008.7 0.0
19/04:30am 24.9 29.4 24.6 98 0.2 N 9 13 5 7 1009.1 1008.5 0.0
19/04:00am 25.0 29.9 24.7 98 0.2 N 7 9 4 5 1009.0 1008.4 0.0
19/03:30am 24.9 29.4 24.6 98 0.2 N 9 13 5 7 1008.6 1008.0 0.0
19/03:00am 24.9 29.5 24.2 96 0.5 N 7 11 4 6 1008.4 1007.8 0.0
19/02:30am 25.4 29.8 24.5 95 0.6 N 9 13 5 7 1008.2 1007.6 0.0
19/02:00am 25.7 29.5 24.7 94 0.7 N 13 17 7 9 1008.0 1007.4 0.0
19/01:52am 25.9 30.2 24.9 94 0.7 N 11 17 6 9 1008.1 1007.5 0.0
19/01:30am 26.1 30.0 24.9 93 0.8 N 13 20 7 11 1008.2 1007.6 0.0
19/01:26am 26.1 30.0 24.9 93 0.8 N 13 20 7 11 1008.1 1007.5 0.0
19/01:00am 26.0 29.9 24.8 93 0.8 N 13 17 7 9 1008.0 1007.4 0.0
19/12:30am 26.0 29.5 24.2 90 1.2 N 13 20 7 11 1007.9 1007.3 0.0
19/12:00am 25.9 28.8 23.2 85 1.8 N 13 17 7 9 1008.2 1007.6 0.0
 
Date/Time
WST
Temp
°C
App
Temp
°C
Dew
Point
°C
Rel
Hum
%
Delta-T
°C
Wind Press
QNH
hPa
Press
MSL
hPa
Rain since
9am
mm
Dir  Spd
km/h
Gust
km/h
Spd
kts
Gust
kts
18/11:30pm 25.7 27.2 20.5 73 3.4 NNW 13 15 7 8 1008.0 1007.4 0.0
18/11:00pm 26.2 27.7 19.8 68 4.2 N 11 13 6 7 1008.4 1007.8 0.0
18/10:30pm 26.9 28.1 20.0 66 4.5 NNW 13 15 7 8 1008.4 1007.8 0.0
18/10:00pm 26.9 28.5 20.0 66 4.5 N 11 13 6 7 1008.5 1007.9 0.0
18/09:30pm 29.0 30.8 20.4 59 5.7 NW 11 13 6 7 1008.1 1007.5 0.0
18/09:00pm 29.3 32.1 21.5 63 5.3 NW 9 13 5 7 1007.8 1007.2 0.0
18/08:30pm 29.6 32.9 22.6 66 4.8 NNW 9 15 5 8 1007.7 1007.1 0.0
18/08:00pm 30.1 33.2 22.8 65 5.0 NNW 11 15 6 8 1007.6 1007.0 0.0
18/07:30pm 30.2 31.8 20.7 56 6.3 NW 13 17 7 9 1007.5 1006.9 0.0
18/07:00pm 31.1 31.5 16.3 41 9.3 NNW 9 11 5 6 1007.2 1006.6 0.0
18/06:30pm 32.5 32.5 15.1 35 10.8 NNW 9 13 5 7 1007.0 1006.4 0.0

Other formats

Comma delimited format used in spreadsheet applications
http://www.bom.gov.au/fwo/IDW60801/IDW60801.94204.axf

JavaScript Object Notation format (JSON) in row-major order
http://www.bom.gov.au/fwo/IDW60801/IDW60801.94204.json

Data quality

Most of these data are generated automatically and are frequently updated. Quality checks on data are not normally performed. It is possible for incorrect values to appear. Refer to information at About Latest Weather Observations and please check the disclaimer before using these data.